Time;durP1;ratioP1;P1;durP2;ratioP2;P2;SDS_P1;SDS_P2;PMS_P1;PMS_P2;Temp;Humidity;BMP_temperature;BMP_pressure;BME280_temperature;BME280_humidity;BME280_pressure;Samples;Min_cycle;Max_cycle;Signal;HPM_P1;HPM_P2
2022/06/13 00:00:14;;;;;;;12.95;3.25;;;17.60;65.50;;;;;;5038405;28;20032;-74
2022/06/13 00:02:39;;;;;;;10.30;3.13;;;17.00;65.20;;;;;;5036173;28;20022;-74
2022/06/13 00:05:07;;;;;;;13.05;3.13;;;16.90;64.90;;;;;;5043656;28;20062;-74
2022/06/13 00:07:33;;;;;;;12.90;3.95;;;16.90;64.90;;;;;;5036378;28;20033;-74
2022/06/13 00:09:59;;;;;;;10.68;3.40;;;16.90;65.10;;;;;;5034822;28;20047;-74
2022/06/13 00:12:25;;;;;;;12.73;3.35;;;16.90;64.70;;;;;;5034662;28;20079;-74
2022/06/13 00:14:51;;;;;;;11.82;3.30;;;16.80;65.40;;;;;;5041704;28;20547;-74
2022/06/13 00:17:17;;;;;;;12.02;3.30;;;16.80;65.40;;;;;;5036524;28;20069;-74
2022/06/13 00:19:43;;;;;;;10.23;3.00;;;17.20;67.40;;;;;;5043772;28;20029;-74
2022/06/13 00:22:09;;;;;;;7.88;3.17;;;16.70;65.50;;;;;;5025231;28;20040;-74
2022/06/13 00:24:35;;;;;;;10.35;3.10;;;16.70;65.40;;;;;;5037565;28;20053;-74
2022/06/13 00:27:02;;;;;;;11.40;3.25;;;16.70;65.50;;;;;;5040070;28;20084;-74
2022/06/13 00:29:28;;;;;;;10.52;3.05;;;16.60;65.70;;;;;;5030927;28;20027;-74
2022/06/13 00:31:54;;;;;;;8.80;3.05;;;16.60;65.70;;;;;;5042116;28;20024;-74
2022/06/13 00:34:19;;;;;;;7.75;3.10;;;16.50;65.60;;;;;;5043151;28;20047;-75
2022/06/13 00:36:45;;;;;;;10.10;2.92;;;16.50;65.40;;;;;;5039642;28;20029;-74
2022/06/13 00:39:10;;;;;;;11.38;3.30;;;16.40;65.30;;;;;;5037482;28;20025;-74
2022/06/13 00:41:39;;;;;;;8.32;2.60;;;16.30;65.30;;;;;;5037602;28;20025;-74
2022/06/13 00:44:18;;;;;;;8.93;2.90;;;16.30;65.20;;;;;;5045571;28;20025;-74
2022/06/13 00:46:44;;;;;;;9.05;3.00;;;16.20;65.90;;;;;;5044190;28;20091;-74
2022/06/13 00:49:20;;;;;;;11.88;2.67;;;16.10;64.80;;;;;;5040100;28;20750;-74
2022/06/13 00:52:17;;;;;;;13.43;2.78;;;16.10;64.80;;;;;;5032699;28;20558;-74
2022/06/13 00:54:44;;;;;;;8.18;3.00;;;16.00;64.80;;;;;;5032416;28;20025;-73
2022/06/13 00:57:16;;;;;;;13.88;2.88;;;16.00;64.90;;;;;;5029376;28;20396;-74
2022/06/13 00:59:43;;;;;;;7.72;3.00;;;15.90;64.90;;;;;;5030048;28;20412;-74
2022/06/13 01:02:09;;;;;;;8.35;2.90;;;15.90;65.00;;;;;;5044262;28;20098;-74
2022/06/13 01:04:35;;;;;;;9.02;2.80;;;15.90;64.70;;;;;;5044914;28;20025;-74
2022/06/13 01:07:01;;;;;;;15.00;3.40;;;15.90;65.60;;;;;;5038838;28;20044;-74
2022/06/13 01:12:14;;;;;;;9.45;2.95;;;15.90;65.90;;;;;;5034057;28;20048;-74
2022/06/13 01:14:39;;;;;;;11.38;2.97;;;15.90;65.80;;;;;;5032542;28;20022;-74
2022/06/13 01:17:25;;;;;;;10.48;3.15;;;15.80;65.40;;;;;;5043308;28;20032;-74
2022/06/13 01:20:27;;;;;;;9.57;2.67;;;15.80;65.20;;;;;;5031503;28;20492;-74
2022/06/13 01:23:14;;;;;;;10.52;2.75;;;15.70;65.10;;;;;;5036375;28;20100;-74
2022/06/13 01:25:54;;;;;;;8.88;2.70;;;15.70;65.20;;;;;;5032288;28;20099;-74
2022/06/13 01:28:41;;;;;;;8.25;2.80;;;15.60;65.20;;;;;;5041784;28;20087;-74
2022/06/13 01:31:16;;;;;;;8.70;3.00;;;15.60;65.50;;;;;;5032011;28;20018;-74
2022/06/13 01:33:44;;;;;;;14.80;3.75;;;15.60;65.70;;;;;;5036505;28;20028;-74
2022/06/13 01:36:13;;;;;;;11.85;3.35;;;15.50;66.10;;;;;;5037204;28;20056;-74
2022/06/13 01:38:38;;;;;;;10.43;3.85;;;15.50;66.60;;;;;;5032898;28;20488;-74
2022/06/13 01:41:12;;;;;;;10.30;3.38;;;15.50;67.20;;;;;;5034622;28;20025;-74
2022/06/13 01:43:53;;;;;;;13.20;3.85;;;15.50;67.80;;;;;;5043945;28;20044;-74
2022/06/13 01:46:19;;;;;;;8.98;3.08;;;15.60;66.90;;;;;;5038577;28;20500;-74
2022/06/13 01:49:05;;;;;;;12.05;3.33;;;15.50;67.70;;;;;;5038290;28;20575;-74
2022/06/13 01:51:42;;;;;;;14.02;3.15;;;15.50;67.70;;;;;;5037917;28;20063;-74
2022/06/13 01:54:24;;;;;;;10.52;3.05;;;15.50;67.80;;;;;;5031050;28;20404;-74
2022/06/13 01:56:59;;;;;;;7.40;2.30;;;15.50;68.00;;;;;;5040220;28;20025;-74
2022/06/13 01:59:53;;;;;;;8.65;2.47;;;15.50;68.00;;;;;;5025537;28;20025;-74
2022/06/13 02:02:40;;;;;;;7.10;2.88;;;15.50;67.80;;;;;;5042657;28;20033;-74
2022/06/13 02:05:27;;;;;;;7.43;2.65;;;15.40;67.90;;;;;;5043479;28;20163;-74
2022/06/13 02:08:00;;;;;;;7.70;2.30;;;15.40;68.10;;;;;;5033916;28;20034;-74
2022/06/13 02:10:31;;;;;;;12.85;3.42;;;15.40;67.90;;;;;;5040183;28;20035;-74
2022/06/13 02:13:06;;;;;;;11.57;3.40;;;15.40;67.00;;;;;;5037135;28;20021;-74
2022/06/13 02:15:39;;;;;;;11.35;3.35;;;15.40;67.90;;;;;;5032603;28;20033;-74
2022/06/13 02:18:12;;;;;;;7.63;2.95;;;15.40;67.90;;;;;;5029788;28;20036;-74
2022/06/13 02:20:41;;;;;;;11.18;3.28;;;15.30;68.00;;;;;;5030519;28;20026;-74
2022/06/13 02:23:12;;;;;;;10.02;3.00;;;15.20;68.00;;;;;;5043891;28;20061;-74
2022/06/13 02:25:43;;;;;;;10.23;2.72;;;15.20;67.70;;;;;;5034971;28;20116;-74
2022/06/13 02:28:25;;;;;;;10.80;3.25;;;15.10;67.50;;;;;;5040328;28;20037;-74
2022/06/13 02:31:20;;;;;;;6.82;2.92;;;15.10;67.30;;;;;;5038704;28;20387;-74
2022/06/13 02:33:54;;;;;;;10.45;3.15;;;15.00;67.00;;;;;;5033090;28;20118;-74
2022/06/13 02:36:37;;;;;;;7.93;3.10;;;14.90;66.80;;;;;;5024510;28;20407;-74
2022/06/13 02:39:27;;;;;;;8.27;3.03;;;14.90;67.80;;;;;;5038184;28;20025;-75
2022/06/13 02:42:02;;;;;;;8.98;3.08;;;14.90;68.40;;;;;;5031863;28;20038;-74
2022/06/13 02:44:27;;;;;;;14.57;3.00;;;14.90;68.40;;;;;;5020754;28;20408;-74
2022/06/13 02:47:09;;;;;;;7.43;2.70;;;14.80;68.10;;;;;;5033406;28;20049;-73
2022/06/13 02:50:01;;;;;;;9.02;3.10;;;14.80;67.90;;;;;;5043595;28;20416;-75
2022/06/13 02:52:56;;;;;;;9.55;3.47;;;14.80;68.00;;;;;;5035219;28;20119;-74
2022/06/13 02:55:22;;;;;;;13.43;3.85;;;14.70;68.20;;;;;;5035618;28;20028;-74
2022/06/13 02:57:54;;;;;;;9.95;3.40;;;14.70;68.50;;;;;;5034219;28;20055;-74
2022/06/13 03:00:40;;;;;;;14.85;3.67;;;14.70;68.90;;;;;;5033817;28;20029;-74
2022/06/13 03:03:12;;;;;;;9.90;3.35;;;14.80;69.10;;;;;;5023522;28;20030;-75
2022/06/13 03:05:46;;;;;;;8.85;3.17;;;14.70;69.20;;;;;;5018806;28;20036;-76
2022/06/13 03:08:42;;;;;;;14.70;3.13;;;14.70;68.80;;;;;;5028977;28;20136;-74
2022/06/13 03:11:40;;;;;;;9.15;3.30;;;14.70;68.30;;;;;;5028479;28;20033;-73
2022/06/13 03:14:36;;;;;;;11.60;3.20;;;14.60;68.00;;;;;;4997940;28;20382;-74
2022/06/13 03:17:07;;;;;;;9.30;3.10;;;14.50;68.10;;;;;;5001566;28;20048;-74
2022/06/13 03:20:04;;;;;;;13.10;3.70;;;14.50;68.20;;;;;;4983363;28;20037;-74
2022/06/13 03:22:37;;;;;;;11.48;3.35;;;14.50;68.60;;;;;;5008174;28;20034;-75
2022/06/13 03:25:11;;;;;;;11.07;3.60;;;14.50;68.60;;;;;;5011370;28;20065;-73
2022/06/13 03:27:45;;;;;;;12.20;3.92;;;14.50;68.80;;;;;;5009423;28;20042;-75
2022/06/13 03:30:20;;;;;;;12.98;3.53;;;14.50;69.00;;;;;;5001046;28;20045;-74
2022/06/13 03:35:55;;;;;;;8.90;2.80;;;14.50;69.00;;;;;;5001177;28;20448;-77
2022/06/13 03:38:26;;;;;;;6.95;2.80;;;14.40;68.90;;;;;;4994191;28;20433;-76
2022/06/13 03:40:55;;;;;;;8.90;2.97;;;14.40;69.00;;;;;;5005752;28;20582;-77
2022/06/13 03:43:41;;;;;;;6.55;3.05;;;14.40;69.30;;;;;;5004511;28;20046;-75
2022/06/13 03:46:31;;;;;;;8.02;3.33;;;14.30;69.30;;;;;;5001922;28;20054;-75
2022/06/13 03:49:10;;;;;;;7.18;3.03;;;14.40;69.40;;;;;;5001680;28;20057;-75
2022/06/13 03:51:43;;;;;;;8.88;2.85;;;14.40;69.30;;;;;;5024522;28;20657;-76
2022/06/13 03:54:41;;;;;;;10.23;3.35;;;14.30;69.20;;;;;;5031166;28;20064;-77
2022/06/13 03:57:09;;;;;;;8.13;3.30;;;14.30;69.10;;;;;;5020270;28;20061;-77
2022/06/13 03:59:47;;;;;;;11.10;3.40;;;14.30;69.00;;;;;;5044219;28;20083;-77
2022/06/13 04:02:16;;;;;;;9.27;3.05;;;14.30;69.00;;;;;;5047576;28;20029;-77
2022/06/13 04:04:45;;;;;;;9.18;3.13;;;14.20;69.20;;;;;;5033157;28;20112;-77
2022/06/13 04:07:11;;;;;;;11.68;3.28;;;14.20;69.30;;;;;;5041569;28;20087;-76
2022/06/13 04:09:52;;;;;;;9.93;3.53;;;14.20;68.50;;;;;;5042450;28;20032;-77
2022/06/13 04:12:34;;;;;;;11.48;3.10;;;14.20;69.30;;;;;;5042798;28;20025;-78
2022/06/13 04:15:03;;;;;;;10.60;3.35;;;14.20;69.40;;;;;;5034926;28;20021;-77
2022/06/13 04:18:10;;;;;;;9.23;2.97;;;14.20;69.40;;;;;;5045591;28;20029;-77
2022/06/13 04:21:03;;;;;;;9.35;3.30;;;14.20;69.40;;;;;;5017407;28;20619;-77
2022/06/13 04:23:51;;;;;;;7.20;3.13;;;14.20;69.10;;;;;;5025250;28;20021;-77
2022/06/13 04:26:29;;;;;;;8.18;2.90;;;14.10;68.90;;;;;;5046954;28;27679;-77
2022/06/13 04:29:12;;;;;;;10.18;3.08;;;14.10;68.70;;;;;;5043948;28;20029;-77
2022/06/13 04:31:40;;;;;;;8.23;2.85;;;14.10;68.30;;;;;;5035825;28;20473;-77
2022/06/13 04:34:17;;;;;;;15.05;3.25;;;14.00;68.30;;;;;;5031910;28;20025;-76
2022/06/13 04:36:45;;;;;;;9.10;3.35;;;14.00;68.80;;;;;;5037541;28;20017;-76
2022/06/13 04:39:14;;;;;;;11.00;3.10;;;14.00;69.10;;;;;;5041940;28;20029;-75
2022/06/13 04:41:43;;;;;;;12.93;3.33;;;14.00;69.30;;;;;;5042708;28;20029;-77
2022/06/13 04:44:20;;;;;;;12.20;3.30;;;14.00;69.30;;;;;;5039849;28;20499;-76
2022/06/13 04:46:48;;;;;;;9.07;3.30;;;14.00;69.40;;;;;;5035179;28;20390;-77
2022/06/13 04:49:29;;;;;;;10.00;3.33;;;14.10;69.60;;;;;;5036541;28;20022;-77
2022/06/13 04:51:56;;;;;;;12.63;3.53;;;14.10;69.80;;;;;;5029447;28;20040;-77
2022/06/13 04:54:35;;;;;;;9.55;2.92;;;14.10;70.00;;;;;;5036775;28;20021;-78
2022/06/13 04:57:01;;;;;;;10.57;3.30;;;14.20;69.50;;;;;;5033122;28;20113;-76
2022/06/13 04:59:28;;;;;;;9.82;3.33;;;14.20;70.30;;;;;;5027129;28;20029;-79
2022/06/13 05:01:56;;;;;;;11.93;4.00;;;14.20;70.40;;;;;;5033462;28;20040;-86
2022/06/13 05:04:29;;;;;;;16.13;4.28;;;14.20;70.70;;;;;;5031824;28;20501;-78
2022/06/13 05:07:05;;;;;;;11.45;3.90;;;14.30;70.90;;;;;;5030508;28;20068;-76
2022/06/13 05:09:36;;;;;;;12.93;3.78;;;14.30;71.90;;;;;;5024193;28;20520;-88
2022/06/13 05:12:18;;;;;;;12.98;4.00;;;14.40;72.00;;;;;;5027807;28;20340;-83
2022/06/13 05:15:32;;;;;;;11.93;3.67;;;14.50;72.10;;;;;;5027746;28;20048;-80
2022/06/13 05:18:36;;;;;;;11.00;4.10;;;14.50;72.50;;;;;;4943214;29;20411;-79
2022/06/13 05:21:37;;;;;;;13.15;3.95;;;14.60;72.80;;;;;;4943022;29;20039;-78
2022/06/13 05:24:14;;;;;;;10.90;3.40;;;14.70;72.80;;;;;;4943502;28;20039;-79
2022/06/13 05:26:40;;;;;;;15.70;4.20;;;14.80;72.70;;;;;;4944884;28;20062;-80
2022/06/13 05:29:09;;;;;;;13.32;4.05;;;14.80;72.80;;;;;;4942196;29;20043;-77
2022/06/13 05:31:36;;;;;;;12.63;3.97;;;14.90;73.40;;;;;;4945011;29;20186;-81
2022/06/13 05:34:02;;;;;;;17.65;4.32;;;15.00;73.90;;;;;;4944976;28;20050;-78
2022/06/13 05:36:28;;;;;;;11.63;3.80;;;15.00;74.10;;;;;;4944138;28;20043;-80
2022/06/13 05:38:57;;;;;;;13.48;4.10;;;15.10;74.60;;;;;;4948123;29;20035;-78
2022/06/13 05:41:22;;;;;;;16.40;4.22;;;15.20;76.70;;;;;;4950723;29;20102;-78
2022/06/13 05:43:48;;;;;;;16.48;4.22;;;15.30;74.60;;;;;;4950563;29;20031;-77
2022/06/13 05:46:30;;;;;;;11.07;4.13;;;15.40;74.20;;;;;;4949235;29;20692;-78
2022/06/13 05:48:56;;;;;;;15.63;5.25;;;15.50;74.10;;;;;;4949338;29;20043;-78
2022/06/13 05:51:22;;;;;;;15.07;5.18;;;15.60;74.10;;;;;;4945159;29;20032;-78
2022/06/13 05:53:48;;;;;;;15.98;4.40;;;15.80;74.00;;;;;;4969644;28;20042;-78
2022/06/13 05:56:14;;;;;;;14.35;3.90;;;15.90;74.00;;;;;;5030232;28;20064;-79
2022/06/13 05:58:40;;;;;;;11.25;3.40;;;16.00;73.90;;;;;;5016792;28;20029;-78
2022/06/13 06:01:06;;;;;;;16.58;4.10;;;16.20;73.70;;;;;;5018987;28;20109;-79
2022/06/13 06:03:32;;;;;;;15.52;4.05;;;16.30;73.20;;;;;;5019145;28;20022;-78
2022/06/13 06:06:00;;;;;;;24.80;3.97;;;16.50;72.90;;;;;;5019068;28;20045;-78
2022/06/13 06:08:30;;;;;;;19.20;3.83;;;16.70;72.60;;;;;;5030589;28;20022;-78
2022/06/13 06:10:57;;;;;;;22.27;3.70;;;16.80;72.10;;;;;;5060115;28;20083;-79
2022/06/13 06:13:25;;;;;;;18.25;3.90;;;16.90;71.20;;;;;;5029872;28;20112;-79
2022/06/13 06:15:52;;;;;;;15.00;3.30;;;17.10;70.80;;;;;;5030097;28;20010;-77
2022/06/13 06:18:21;;;;;;;20.45;3.97;;;17.20;70.50;;;;;;5029692;28;20103;-79
2022/06/13 06:20:47;;;;;;;16.10;3.55;;;17.30;70.10;;;;;;5029976;28;20025;-78
2022/06/13 06:23:13;;;;;;;16.58;3.70;;;17.40;69.80;;;;;;5029581;28;20033;-77
2022/06/13 06:25:40;;;;;;;13.55;3.65;;;17.60;68.80;;;;;;5016245;28;20048;-78
2022/06/13 06:28:06;;;;;;;14.75;3.53;;;17.70;68.10;;;;;;5028018;28;20037;-78
2022/06/13 06:30:33;;;;;;;12.07;3.60;;;17.80;67.50;;;;;;5029296;28;20029;-77
2022/06/13 06:32:59;;;;;;;17.73;3.45;;;18.00;66.80;;;;;;5029856;28;20025;-77
2022/06/13 06:35:27;;;;;;;16.80;3.70;;;18.10;66.30;;;;;;5029574;28;20056;-77
2022/06/13 06:37:54;;;;;;;14.45;3.30;;;18.30;65.30;;;;;;5016865;28;20370;-77
2022/06/13 06:40:23;;;;;;;13.57;3.15;;;18.50;64.40;;;;;;5027765;28;20148;-78
2022/06/13 06:42:48;;;;;;;15.85;3.08;;;18.70;63.70;;;;;;5021997;28;20045;-78
2022/06/13 06:45:15;;;;;;;15.02;3.50;;;18.90;62.90;;;;;;5018470;28;20539;-77
2022/06/13 06:47:41;;;;;;;12.10;3.10;;;19.10;61.70;;;;;;5016398;28;20088;-78
2022/06/13 06:50:13;;;;;;;17.60;3.70;;;19.30;60.20;;;;;;5029642;28;20076;-77
2022/06/13 06:52:39;;;;;;;13.93;3.40;;;19.80;59.40;;;;;;5030322;28;20030;-78
2022/06/13 07:00:37;;;;;;;14.68;3.20;;;22.90;48.10;;;;;;5029055;28;20036;-76
2022/06/13 07:03:03;;;;;;;11.43;3.17;;;24.10;44.20;;;;;;5028239;28;20480;-77
2022/06/13 07:05:29;;;;;;;16.15;3.53;;;25.00;41.30;;;;;;5014254;28;20104;-78
2022/06/13 07:07:54;;;;;;;16.02;3.10;;;25.70;38.70;;;;;;5029148;28;20037;-77
2022/06/13 07:10:20;;;;;;;16.17;3.25;;;26.20;37.20;;;;;;5025802;28;20108;-77
2022/06/13 07:12:46;;;;;;;15.13;3.40;;;26.60;36.30;;;;;;5028550;28;20021;-77
2022/06/13 07:15:14;;;;;;;13.13;3.17;;;27.00;35.10;;;;;;5026920;28;20034;-76
2022/06/13 07:17:40;;;;;;;15.73;3.70;;;27.30;34.50;;;;;;5023412;28;20053;-77
2022/06/13 07:20:06;;;;;;;12.70;3.30;;;27.60;33.40;;;;;;5013276;28;20030;-77
2022/06/13 07:22:32;;;;;;;14.00;3.30;;;27.90;33.10;;;;;;5014382;28;20068;-76
2022/06/13 07:24:57;;;;;;;13.38;3.20;;;28.20;32.50;;;;;;5017663;28;20050;-78
2022/06/13 07:27:23;;;;;;;12.45;3.28;;;28.50;31.10;;;;;;5024112;28;20044;-77
2022/06/13 07:29:49;;;;;;;14.52;3.42;;;28.80;30.60;;;;;;5029058;28;20021;-77
2022/06/13 07:32:21;;;;;;;16.33;3.42;;;29.10;30.00;;;;;;5028592;28;20064;-78
2022/06/13 07:34:51;;;;;;;10.52;3.03;;;29.20;28.90;;;;;;5013835;28;20061;-78
2022/06/13 07:40:10;;;;;;;12.02;3.05;;;28.80;29.60;;;;;;5029250;28;20047;-78
2022/06/13 07:42:40;;;;;;;16.23;3.25;;;28.30;30.60;;;;;;5027954;28;20512;-77
2022/06/13 07:45:07;;;;;;;31.08;3.50;;;27.80;31.60;;;;;;5029062;28;20024;-77
2022/06/13 07:47:33;;;;;;;13.20;3.08;;;27.20;33.40;;;;;;5028324;28;20567;-77
2022/06/13 07:49:58;;;;;;;12.18;2.78;;;26.60;34.60;;;;;;5028461;28;20104;-77
2022/06/13 07:52:24;;;;;;;15.07;3.30;;;26.10;35.70;;;;;;5017081;28;20100;-78
2022/06/13 07:54:50;;;;;;;15.05;3.25;;;25.70;36.80;;;;;;5024952;28;20029;-77
2022/06/13 07:57:16;;;;;;;10.77;3.15;;;25.40;37.20;;;;;;5028552;28;20104;-78
2022/06/13 07:59:41;;;;;;;13.13;2.95;;;25.20;37.60;;;;;;5029183;28;20431;-78
2022/06/13 08:02:15;;;;;;;13.25;3.05;;;25.00;37.90;;;;;;5013086;28;20091;-77
2022/06/13 08:04:41;;;;;;;12.40;3.08;;;25.00;38.40;;;;;;5029769;28;20041;-78
2022/06/13 08:07:15;;;;;;;11.43;2.75;;;24.90;38.70;;;;;;5027904;28;20115;-77
2022/06/13 08:09:41;;;;;;;11.45;2.78;;;24.70;38.80;;;;;;5028390;28;20060;-78
2022/06/13 08:12:09;;;;;;;13.80;3.20;;;24.80;38.90;;;;;;5028382;28;20056;-78
2022/06/13 08:14:34;;;;;;;13.05;3.10;;;24.70;38.60;;;;;;5028834;28;20033;-77
2022/06/13 08:17:00;;;;;;;14.70;3.03;;;24.70;37.90;;;;;;5024614;28;20389;-78
2022/06/13 08:19:26;;;;;;;14.02;2.72;;;24.60;39.00;;;;;;5029288;28;20477;-78
2022/06/13 08:21:51;;;;;;;11.45;2.70;;;24.60;39.20;;;;;;5020706;28;20020;-77
2022/06/13 08:24:18;;;;;;;13.98;2.60;;;24.70;38.80;;;;;;5017374;28;20049;-78
2022/06/13 08:26:44;;;;;;;14.02;2.70;;;24.70;38.00;;;;;;5015353;28;20041;-77
2022/06/13 08:29:10;;;;;;;15.48;2.88;;;24.80;37.20;;;;;;5012330;28;20038;-78
2022/06/13 08:31:37;;;;;;;8.48;2.25;;;24.70;37.60;;;;;;5015080;28;20076;-78
2022/06/13 08:34:04;;;;;;;9.52;2.42;;;24.70;37.60;;;;;;5017244;28;20026;-78
